createdAt,value
2023-03-06T00:00:06.401Z,19.77
2023-03-06T00:00:24.511Z,20.58
2023-03-06T00:00:39.955Z,20.10
2023-03-06T00:00:57.362Z,18.73
2023-03-06T00:01:09.894Z,20.83
2023-03-06T00:01:21.858Z,20.70
2023-03-06T00:01:33.795Z,18.23
2023-03-06T00:01:48.940Z,18.40
2023-03-06T00:02:00.886Z,17.40
2023-03-06T00:02:12.958Z,16.92
2023-03-06T00:02:25.204Z,17.92
2023-03-06T00:02:37.162Z,18.27
2023-03-06T00:02:49.586Z,19.05
2023-03-06T00:03:05.334Z,18.75
2023-03-06T00:03:17.774Z,17.75
2023-03-06T00:03:30.082Z,16.58
2023-03-06T00:03:42.113Z,17.17
2023-03-06T00:03:55.202Z,18.05
2023-03-06T00:04:08.467Z,18.55
2023-03-06T00:04:20.839Z,17.20
2023-03-06T00:04:32.810Z,16.52
2023-03-06T00:04:44.761Z,17.42
2023-03-06T00:04:57.056Z,16.98
2023-03-06T00:05:09.156Z,16.83
2023-03-06T00:05:22.869Z,15.55
2023-03-06T00:05:34.951Z,16.23
2023-03-06T00:05:47.680Z,17.60
2023-03-06T00:06:00.565Z,18.50
2023-03-06T00:06:12.614Z,18.63
2023-03-06T00:06:24.652Z,18.17
2023-03-06T00:06:36.671Z,17.63
2023-03-06T00:06:51.586Z,17.73
2023-03-06T00:07:03.604Z,17.40
2023-03-06T00:07:15.548Z,18.33
2023-03-06T00:07:27.547Z,18.95
2023-03-06T00:07:39.572Z,19.95
2023-03-06T00:07:51.617Z,19.02
2023-03-06T00:08:03.693Z,19.30
2023-03-06T00:08:15.775Z,20.08
2023-03-06T00:08:28.952Z,19.48
2023-03-06T00:08:40.896Z,18.60
2023-03-06T00:08:52.944Z,18.02
2023-03-06T00:09:04.966Z,17.92
2023-03-06T00:09:16.954Z,18.27
2023-03-06T00:09:29.006Z,18.45
2023-03-06T00:09:41.042Z,18.15
2023-03-06T00:09:53.025Z,15.80
2023-03-06T00:10:05.410Z,15.30
2023-03-06T00:10:32.082Z,15.30
2023-03-06T00:10:44.568Z,18.85
2023-03-06T00:10:57.001Z,20.15
2023-03-06T00:11:09.014Z,19.30
2023-03-06T00:11:21.261Z,18.25
2023-03-06T00:11:33.396Z,16.80
2023-03-06T00:11:45.416Z,16.95
2023-03-06T00:11:57.505Z,19.00
2023-03-06T00:12:09.779Z,20.02
2023-03-06T00:12:21.917Z,18.38
2023-03-06T00:12:34.136Z,18.85
2023-03-06T00:12:46.364Z,18.35
2023-03-06T00:13:01.531Z,17.33
2023-03-06T00:13:15.266Z,17.05
2023-03-06T00:13:30.072Z,17.80
2023-03-06T00:13:42.198Z,16.65
2023-03-06T00:13:54.220Z,16.15
2023-03-06T00:14:06.491Z,16.35
2023-03-06T00:14:18.526Z,19.50
2023-03-06T00:14:30.645Z,19.88
2023-03-06T00:14:42.721Z,19.40
2023-03-06T00:14:54.836Z,18.98
2023-03-06T00:15:07.816Z,18.77
2023-03-06T00:15:20.354Z,17.55
2023-03-06T00:15:32.617Z,17.33
2023-03-06T00:15:45.587Z,15.30
2023-03-06T00:16:01.005Z,15.55
2023-03-06T00:16:13.427Z,15.52
2023-03-06T00:16:25.771Z,15.18
2023-03-06T00:16:37.860Z,15.88
2023-03-06T00:16:49.997Z,15.35
2023-03-06T00:17:02.056Z,16.77
2023-03-06T00:17:14.052Z,16.70
2023-03-06T00:17:28.263Z,17.00
2023-03-06T00:17:40.976Z,15.25
2023-03-06T00:17:53.246Z,13.88
2023-03-06T00:18:06.383Z,15.55
2023-03-06T00:18:18.500Z,16.13
2023-03-06T00:18:30.593Z,16.55
2023-03-06T00:18:44.093Z,18.38
2023-03-06T00:18:56.237Z,18.73
2023-03-06T00:19:08.432Z,18.05
2023-03-06T00:19:20.515Z,17.67
2023-03-06T00:19:32.612Z,17.08
2023-03-06T00:19:44.831Z,16.50
2023-03-06T00:19:57.241Z,16.98
2023-03-06T00:20:11.844Z,15.70
2023-03-06T00:20:25.863Z,15.88
2023-03-06T00:20:43.070Z,16.63
2023-03-06T00:20:55.171Z,16.95
2023-03-06T00:21:08.312Z,16.65
2023-03-06T00:21:20.460Z,17.60
2023-03-06T00:21:32.516Z,18.23
2023-03-06T00:21:44.577Z,19.20
2023-03-06T00:21:56.873Z,18.42
2023-03-06T00:22:13.792Z,17.00
2023-03-06T00:22:28.699Z,16.38
2023-03-06T00:22:41.237Z,16.25
2023-03-06T00:22:56.588Z,15.68
2023-03-06T00:23:09.793Z,15.48
2023-03-06T00:23:21.923Z,15.65
2023-03-06T00:23:34.176Z,16.38
2023-03-06T00:23:46.282Z,15.63
2023-03-06T00:23:58.436Z,15.27
2023-03-06T00:24:10.529Z,15.57
2023-03-06T00:24:22.604Z,15.75
2023-03-06T00:24:34.808Z,16.27
2023-03-06T00:24:46.901Z,16.00
2023-03-06T00:24:59.039Z,14.77
2023-03-06T00:25:17.310Z,16.30
2023-03-06T00:25:29.431Z,16.92
2023-03-06T00:25:48.370Z,17.02
2023-03-06T00:26:00.410Z,19.23
2023-03-06T00:26:12.505Z,17.75
2023-03-06T00:26:24.599Z,16.02
2023-03-06T00:26:36.782Z,16.60
2023-03-06T00:26:48.943Z,15.77
2023-03-06T00:27:01.240Z,15.38
2023-03-06T00:27:14.630Z,15.55
2023-03-06T00:27:26.802Z,15.48
2023-03-06T00:27:38.903Z,14.93
2023-03-06T00:27:51.221Z,15.23
2023-03-06T00:28:03.920Z,16.23
2023-03-06T00:28:17.376Z,16.95
2023-03-06T00:28:31.461Z,17.13
2023-03-06T00:28:46.627Z,16.42
2023-03-06T00:28:58.823Z,16.77
2023-03-06T00:29:10.906Z,15.85
2023-03-06T00:29:22.856Z,15.13
2023-03-06T00:29:34.892Z,15.32
2023-03-06T00:29:49.211Z,15.65
2023-03-06T00:30:01.681Z,16.35
2023-03-06T00:30:16.221Z,16.20
2023-03-06T00:30:28.188Z,14.32
2023-03-06T00:30:40.160Z,13.77
2023-03-06T00:30:52.146Z,15.75
2023-03-06T00:31:04.294Z,17.25
2023-03-06T00:31:16.262Z,16.17
2023-03-06T00:31:28.302Z,15.27
2023-03-06T00:31:40.320Z,15.07
2023-03-06T00:31:52.271Z,15.23
2023-03-06T00:32:04.427Z,16.13
2023-03-06T00:32:16.497Z,15.25
2023-03-06T00:32:28.901Z,14.15
2023-03-06T00:32:41.407Z,14.02
2023-03-06T00:32:54.145Z,14.43
2023-03-06T00:33:06.106Z,14.63
2023-03-06T00:33:18.047Z,14.35
2023-03-06T00:33:30.156Z,14.95
2023-03-06T00:33:43.416Z,14.88
2023-03-06T00:33:55.392Z,14.50
2023-03-06T00:34:09.404Z,15.25
2023-03-06T00:34:21.376Z,16.27
2023-03-06T00:34:33.427Z,16.38
2023-03-06T00:34:49.141Z,16.50
2023-03-06T00:35:01.078Z,15.70
2023-03-06T00:35:13.699Z,16.02
2023-03-06T00:35:25.711Z,16.40
2023-03-06T00:35:41.430Z,14.88
2023-03-06T00:35:53.503Z,15.68
2023-03-06T00:36:06.361Z,15.43
2023-03-06T00:36:18.442Z,14.52
2023-03-06T00:36:30.376Z,14.15
2023-03-06T00:36:42.308Z,17.23
2023-03-06T00:36:54.268Z,17.65
2023-03-06T00:37:06.218Z,18.10
2023-03-06T00:37:19.002Z,15.48
2023-03-06T00:37:31.139Z,15.40
2023-03-06T00:37:43.154Z,15.13
2023-03-06T00:37:55.090Z,14.23
2023-03-06T00:38:07.928Z,14.82
2023-03-06T00:38:19.887Z,14.63
2023-03-06T00:38:35.370Z,15.55
2023-03-06T00:38:47.331Z,17.15
2023-03-06T00:38:59.323Z,17.00
2023-03-06T00:39:11.326Z,16.73
2023-03-06T00:39:23.594Z,16.02
2023-03-06T00:39:35.539Z,16.17
2023-03-06T00:39:50.650Z,17.50
2023-03-06T00:40:08.605Z,17.55
2023-03-06T00:40:21.801Z,16.98
2023-03-06T00:40:33.892Z,16.08
2023-03-06T00:40:45.942Z,16.15
2023-03-06T00:40:57.937Z,15.52
2023-03-06T00:41:11.100Z,15.50
2023-03-06T00:41:23.194Z,15.63
2023-03-06T00:41:35.212Z,15.02
2023-03-06T00:41:47.219Z,14.45
2023-03-06T00:41:59.236Z,15.40
2023-03-06T00:42:11.670Z,16.80
2023-03-06T00:42:23.773Z,16.58
2023-03-06T00:42:35.794Z,16.63
2023-03-06T00:42:48.628Z,14.75
2023-03-06T00:43:00.683Z,14.05
2023-03-06T00:43:12.847Z,13.88
2023-03-06T00:43:24.839Z,15.43
2023-03-06T00:43:36.998Z,14.80
2023-03-06T00:43:48.951Z,14.57
2023-03-06T00:44:00.855Z,15.07
2023-03-06T00:44:12.844Z,15.63
2023-03-06T00:44:24.856Z,17.05
2023-03-06T00:44:36.895Z,16.92
2023-03-06T00:44:49.002Z,16.00
2023-03-06T00:45:01.022Z,16.20
2023-03-06T00:45:14.256Z,15.52
2023-03-06T00:45:26.217Z,15.20
2023-03-06T00:45:38.473Z,15.10
2023-03-06T00:45:50.736Z,14.95
2023-03-06T00:46:02.901Z,15.73
2023-03-06T00:46:17.519Z,16.55
2023-03-06T00:46:29.503Z,16.70
2023-03-06T00:46:41.509Z,14.95
2023-03-06T00:46:53.502Z,14.35
2023-03-06T00:47:05.665Z,13.98
2023-03-06T00:47:17.656Z,14.98
2023-03-06T00:47:29.766Z,15.70
2023-03-06T00:47:42.233Z,15.10
2023-03-06T00:47:54.335Z,14.63
2023-03-06T00:48:06.553Z,12.37
2023-03-06T00:48:18.541Z,12.93
2023-03-06T00:48:36.498Z,14.30
2023-03-06T00:48:48.525Z,15.88
2023-03-06T00:49:00.576Z,15.93
2023-03-06T00:49:12.564Z,15.27
2023-03-06T00:49:24.630Z,14.10
2023-03-06T00:49:36.623Z,14.50
2023-03-06T00:49:49.849Z,14.07
2023-03-06T00:50:01.905Z,14.02
2023-03-06T00:50:13.884Z,13.25
2023-03-06T00:50:25.852Z,14.30
2023-03-06T00:50:37.884Z,15.15
2023-03-06T00:50:49.829Z,14.18
2023-03-06T00:51:04.949Z,14.05
2023-03-06T00:51:19.626Z,13.30
2023-03-06T00:51:31.738Z,13.48
2023-03-06T00:51:43.717Z,13.82
2023-03-06T00:51:55.738Z,16.15
2023-03-06T00:52:07.706Z,16.98
2023-03-06T00:52:19.643Z,16.65
2023-03-06T00:52:32.062Z,15.18
2023-03-06T00:52:44.074Z,14.20
2023-03-06T00:52:56.074Z,14.93
2023-03-06T00:53:08.079Z,15.60
2023-03-06T00:53:20.060Z,16.58
2023-03-06T00:53:32.048Z,15.45
2023-03-06T00:53:43.991Z,14.70
2023-03-06T00:53:55.976Z,15.52
2023-03-06T00:54:07.936Z,15.70
2023-03-06T00:54:19.939Z,16.90
2023-03-06T00:54:31.991Z,15.00
2023-03-06T00:54:43.952Z,14.50
2023-03-06T00:54:56.008Z,15.35
2023-03-06T00:55:09.457Z,15.93
2023-03-06T00:55:21.856Z,16.95
2023-03-06T00:55:33.842Z,16.38
2023-03-06T00:55:46.230Z,15.48
2023-03-06T00:55:58.273Z,14.82
2023-03-06T00:56:10.488Z,15.18
2023-03-06T00:56:22.582Z,15.48
2023-03-06T00:56:34.506Z,15.75
2023-03-06T00:56:46.552Z,15.27
2023-03-06T00:56:58.499Z,14.80
2023-03-06T00:57:10.526Z,15.38
2023-03-06T00:57:22.550Z,16.35
2023-03-06T00:57:34.591Z,16.35
2023-03-06T00:57:46.653Z,14.18
2023-03-06T00:57:58.805Z,14.57
2023-03-06T00:58:11.112Z,14.88
2023-03-06T00:58:23.122Z,13.52
2023-03-06T00:58:35.295Z,14.13
2023-03-06T00:58:47.286Z,13.98
2023-03-06T00:58:59.290Z,13.18
2023-03-06T00:59:11.514Z,15.13
2023-03-06T00:59:23.536Z,17.20
2023-03-06T00:59:35.940Z,16.48
2023-03-06T00:59:47.927Z,14.32
2023-03-06T00:59:59.921Z,14.73
2023-03-06T01:00:13.877Z,15.70
2023-03-06T01:00:25.786Z,16.70
2023-03-06T01:00:38.409Z,15.05
2023-03-06T01:00:50.584Z,14.38
2023-03-06T01:01:02.962Z,14.65
2023-03-06T01:01:15.012Z,14.73
2023-03-06T01:01:27.280Z,14.50
2023-03-06T01:01:39.299Z,13.75
2023-03-06T01:01:51.278Z,14.00
2023-03-06T01:02:03.972Z,13.73
2023-03-06T01:02:18.865Z,13.20
2023-03-06T01:02:30.977Z,14.38
2023-03-06T01:02:43.119Z,15.05
2023-03-06T01:02:56.074Z,14.38
2023-03-06T01:03:09.784Z,14.07
2023-03-06T01:03:21.731Z,14.27
2023-03-06T01:03:33.889Z,14.82
2023-03-06T01:03:45.949Z,15.18
2023-03-06T01:03:57.974Z,16.42
2023-03-06T01:04:10.105Z,16.55
2023-03-06T01:04:22.312Z,14.85
2023-03-06T01:04:34.715Z,14.50
2023-03-06T01:04:47.104Z,14.23
2023-03-06T01:04:59.139Z,15.23
2023-03-06T01:05:13.595Z,15.77
2023-03-06T01:05:28.067Z,15.10
2023-03-06T01:05:40.181Z,13.93
2023-03-06T01:05:52.243Z,14.13
2023-03-06T01:06:04.330Z,14.77
2023-03-06T01:06:17.457Z,15.32
2023-03-06T01:06:30.122Z,16.10
2023-03-06T01:06:42.115Z,15.32
2023-03-06T01:06:54.146Z,14.77
2023-03-06T01:07:09.190Z,15.00
2023-03-06T01:07:21.186Z,15.88
2023-03-06T01:07:36.438Z,15.70
2023-03-06T01:07:48.483Z,14.93
2023-03-06T01:08:00.494Z,13.63
2023-03-06T01:08:12.465Z,13.43
2023-03-06T01:08:24.553Z,13.10
2023-03-06T01:08:36.639Z,14.30
2023-03-06T01:08:48.650Z,16.48
2023-03-06T01:09:00.649Z,15.52
2023-03-06T01:09:13.159Z,15.68
2023-03-06T01:09:25.095Z,15.32
2023-03-06T01:09:37.149Z,15.95
2023-03-06T01:09:49.270Z,16.48
2023-03-06T01:10:01.276Z,17.65
2023-03-06T01:10:13.284Z,16.52
2023-03-06T01:10:25.295Z,15.68
2023-03-06T01:10:39.307Z,16.85
2023-03-06T01:10:51.421Z,18.27
2023-03-06T01:11:03.717Z,17.30
2023-03-06T01:11:15.783Z,15.48
2023-03-06T01:11:27.833Z,14.93
2023-03-06T01:11:39.823Z,15.63
2023-03-06T01:11:51.983Z,14.45
2023-03-06T01:12:04.223Z,14.40
2023-03-06T01:12:16.234Z,13.60
2023-03-06T01:12:28.288Z,13.48
2023-03-06T01:12:40.301Z,14.25
2023-03-06T01:12:52.275Z,15.00
2023-03-06T01:13:04.300Z,16.35
2023-03-06T01:13:16.649Z,16.23
2023-03-06T01:13:28.671Z,16.05
2023-03-06T01:13:40.716Z,15.98
2023-03-06T01:13:52.739Z,14.50
2023-03-06T01:14:05.089Z,15.60
2023-03-06T01:14:19.337Z,16.10
2023-03-06T01:14:31.966Z,16.52
2023-03-06T01:14:44.019Z,14.82
2023-03-06T01:14:56.074Z,14.50
2023-03-06T01:15:09.200Z,15.90
2023-03-06T01:15:24.780Z,14.77
2023-03-06T01:15:36.911Z,14.48
2023-03-06T01:15:48.951Z,15.02
2023-03-06T01:16:19.355Z,14.93
2023-03-06T01:16:31.709Z,16.17
2023-03-06T01:16:43.808Z,16.15
2023-03-06T01:16:55.852Z,15.85
2023-03-06T01:17:07.865Z,14.43
2023-03-06T01:17:19.902Z,13.20
2023-03-06T01:17:31.943Z,13.05
2023-03-06T01:17:44.109Z,12.43
2023-03-06T01:17:56.123Z,12.18
2023-03-06T01:18:08.070Z,14.38
2023-03-06T01:18:20.159Z,15.35
2023-03-06T01:18:32.201Z,14.70
2023-03-06T01:18:44.781Z,15.27
2023-03-06T01:18:57.000Z,15.80
2023-03-06T01:19:09.533Z,14.85
2023-03-06T01:19:21.687Z,16.48
2023-03-06T01:19:33.700Z,16.27
2023-03-06T01:19:45.746Z,15.32
2023-03-06T01:19:58.056Z,15.38
2023-03-06T01:20:13.754Z,16.85
2023-03-06T01:20:25.961Z,16.10
2023-03-06T01:20:38.089Z,15.55
2023-03-06T01:20:50.025Z,15.65
2023-03-06T01:21:02.479Z,14.73
2023-03-06T01:21:14.637Z,14.60
2023-03-06T01:21:26.630Z,14.45
2023-03-06T01:21:38.607Z,14.77
2023-03-06T01:21:50.698Z,14.85
2023-03-06T01:22:02.833Z,14.43
2023-03-06T01:22:14.874Z,14.52
2023-03-06T01:22:26.876Z,16.23
2023-03-06T01:22:38.900Z,14.93
2023-03-06T01:22:50.920Z,14.35
2023-03-06T01:23:02.934Z,14.00
2023-03-06T01:23:14.844Z,14.25
2023-03-06T01:23:26.938Z,13.05
2023-03-06T01:23:39.286Z,12.15
2023-03-06T01:23:51.554Z,13.38
2023-03-06T01:24:03.685Z,14.68
2023-03-06T01:24:15.711Z,14.70
2023-03-06T01:24:28.493Z,14.00
2023-03-06T01:24:40.536Z,15.00
2023-03-06T01:24:52.491Z,15.63
2023-03-06T01:25:04.780Z,14.98
2023-03-06T01:25:16.932Z,13.63
2023-03-06T01:25:29.054Z,13.18
2023-03-06T01:25:40.974Z,13.57
2023-03-06T01:25:52.938Z,16.55
2023-03-06T01:26:05.371Z,17.17
2023-03-06T01:26:17.839Z,16.45
2023-03-06T01:26:29.886Z,13.75
2023-03-06T01:26:41.897Z,14.27
2023-03-06T01:26:54.221Z,14.13
2023-03-06T01:27:06.280Z,15.20
2023-03-06T01:27:18.221Z,14.70
2023-03-06T01:27:30.201Z,13.25
2023-03-06T01:27:42.161Z,13.10
2023-03-06T01:27:54.152Z,14.77
2023-03-06T01:28:06.133Z,14.45
2023-03-06T01:28:18.014Z,14.80
2023-03-06T01:28:30.272Z,14.32
2023-03-06T01:28:42.239Z,15.30
2023-03-06T01:28:54.334Z,15.80
2023-03-06T01:29:09.292Z,16.80
2023-03-06T01:29:21.209Z,15.40
2023-03-06T01:29:33.156Z,14.70
2023-03-06T01:29:45.046Z,15.95
2023-03-06T01:29:57.044Z,16.05
2023-03-06T01:30:09.549Z,15.65
2023-03-06T01:30:21.644Z,15.90
2023-03-06T01:30:33.579Z,16.65
2023-03-06T01:30:45.472Z,16.05
2023-03-06T01:30:57.563Z,14.25
2023-03-06T01:31:09.854Z,14.07
2023-03-06T01:31:21.757Z,14.52
2023-03-06T01:31:33.736Z,14.68
2023-03-06T01:31:45.953Z,14.80
2023-03-06T01:31:57.929Z,14.93
2023-03-06T01:32:09.885Z,13.90
2023-03-06T01:32:21.983Z,14.15
2023-03-06T01:32:33.996Z,15.00
2023-03-06T01:32:46.167Z,15.15
2023-03-06T01:32:59.157Z,16.25
2023-03-06T01:33:11.047Z,15.30
2023-03-06T01:33:22.989Z,12.88
2023-03-06T01:33:35.995Z,12.75
2023-03-06T01:33:47.878Z,13.40
2023-03-06T01:33:59.921Z,13.25
2023-03-06T01:34:11.979Z,13.02
2023-03-06T01:34:23.916Z,13.95
2023-03-06T01:34:35.846Z,15.00
2023-03-06T01:34:47.818Z,15.70
2023-03-06T01:34:59.780Z,15.57
2023-03-06T01:35:12.884Z,13.15
2023-03-06T01:35:24.866Z,14.13
2023-03-06T01:35:38.523Z,15.13
2023-03-06T01:35:50.438Z,14.95
2023-03-06T01:36:07.260Z,13.93
2023-03-06T01:36:19.428Z,14.88
2023-03-06T01:36:31.420Z,14.77
2023-03-06T01:36:43.597Z,15.50
2023-03-06T01:36:55.543Z,16.00
2023-03-06T01:37:07.475Z,14.45
2023-03-06T01:37:19.525Z,15.23
2023-03-06T01:37:31.505Z,16.25
2023-03-06T01:37:43.516Z,15.95
2023-03-06T01:37:58.335Z,15.32
2023-03-06T01:38:10.445Z,14.43
2023-03-06T01:38:22.387Z,15.45
2023-03-06T01:38:35.919Z,17.65
2023-03-06T01:38:47.878Z,16.70
2023-03-06T01:38:59.833Z,14.82
2023-03-06T01:39:11.770Z,14.18
2023-03-06T01:39:23.768Z,14.65
2023-03-06T01:39:35.697Z,14.63
2023-03-06T01:39:47.640Z,13.75
2023-03-06T01:39:59.548Z,14.00
2023-03-06T01:40:12.653Z,14.38
2023-03-06T01:40:24.621Z,14.45
2023-03-06T01:40:37.860Z,13.32
2023-03-06T01:40:49.822Z,13.00
2023-03-06T01:41:03.446Z,13.63
2023-03-06T01:41:16.049Z,14.00
2023-03-06T01:41:27.965Z,13.32
2023-03-06T01:41:39.863Z,13.55
2023-03-06T01:41:51.831Z,13.43
2023-03-06T01:42:03.950Z,13.68
2023-03-06T01:42:16.282Z,13.63
2023-03-06T01:42:28.271Z,13.73
2023-03-06T01:42:40.481Z,13.48
2023-03-06T01:42:52.413Z,14.23
2023-03-06T01:43:29.179Z,15.75
2023-03-06T01:43:44.092Z,14.70
2023-03-06T01:43:56.038Z,13.88
2023-03-06T01:44:11.265Z,14.15
2023-03-06T01:44:23.155Z,13.68
2023-03-06T01:44:35.234Z,14.45
2023-03-06T01:45:05.629Z,13.35
2023-03-06T01:45:17.460Z,14.73
2023-03-06T01:45:35.354Z,14.82
2023-03-06T01:45:49.946Z,14.85
2023-03-06T01:46:26.054Z,16.88
2023-03-06T01:46:43.619Z,14.60
2023-03-06T01:46:55.644Z,14.20
2023-03-06T01:47:07.527Z,13.88
2023-03-06T01:47:19.431Z,14.38
2023-03-06T01:47:31.401Z,15.50
2023-03-06T01:47:44.773Z,15.20
2023-03-06T01:47:56.728Z,13.98
2023-03-06T01:48:08.626Z,12.38
2023-03-06T01:48:23.842Z,13.63
2023-03-06T01:48:35.820Z,14.63
2023-03-06T01:48:49.947Z,14.25
2023-03-06T01:49:07.692Z,14.10
2023-03-06T01:49:23.893Z,14.30
2023-03-06T01:49:40.022Z,14.32
2023-03-06T01:49:53.257Z,13.75
2023-03-06T01:50:08.524Z,13.85
2023-03-06T01:50:20.559Z,15.80
2023-03-06T01:50:32.577Z,16.27
2023-03-06T01:50:44.698Z,14.18
2023-03-06T01:50:56.619Z,14.43
2023-03-06T01:51:09.003Z,13.48
2023-03-06T01:51:23.042Z,14.25
2023-03-06T01:51:45.349Z,14.85
2023-03-06T01:52:09.564Z,15.88
2023-03-06T01:52:25.577Z,16.17
2023-03-06T01:52:50.782Z,14.43
2023-03-06T01:53:02.789Z,14.57
2023-03-06T01:53:15.358Z,15.15
2023-03-06T01:53:27.392Z,14.27
2023-03-06T01:53:40.121Z,15.48
2023-03-06T01:53:53.367Z,16.75
2023-03-06T01:54:10.470Z,17.20
2023-03-06T01:54:24.814Z,16.42
2023-03-06T01:54:44.832Z,16.60
2023-03-06T01:55:13.347Z,14.85
2023-03-06T01:55:30.888Z,12.88
2023-03-06T01:55:42.923Z,14.35
2023-03-06T01:55:55.915Z,15.48
2023-03-06T01:56:08.065Z,14.70
2023-03-06T01:56:20.697Z,14.13
2023-03-06T01:56:33.151Z,15.85
2023-03-06T01:56:47.481Z,16.80
2023-03-06T01:57:05.473Z,15.15
2023-03-06T01:57:40.986Z,13.88
2023-03-06T01:57:57.718Z,15.18
2023-03-06T01:58:14.269Z,15.38
2023-03-06T01:58:26.240Z,14.13
2023-03-06T01:58:38.683Z,13.52
2023-03-06T01:58:51.700Z,13.40
2023-03-06T01:59:04.432Z,13.98
2023-03-06T01:59:16.711Z,15.48
2023-03-06T01:59:29.766Z,14.60
2023-03-06T01:59:43.147Z,13.75
2023-03-06T02:00:08.904Z,14.25
2023-03-06T02:00:24.313Z,14.45
2023-03-06T02:00:36.332Z,14.43
2023-03-06T02:00:48.356Z,15.75
2023-03-06T02:01:00.378Z,16.10
2023-03-06T02:01:14.527Z,15.88
2023-03-06T02:01:26.801Z,15.18
2023-03-06T02:01:39.911Z,14.13
2023-03-06T02:01:51.884Z,14.40
2023-03-06T02:02:08.315Z,14.50
2023-03-06T02:02:21.030Z,14.48
2023-03-06T02:02:33.227Z,14.18
2023-03-06T02:02:50.327Z,13.60
2023-03-06T02:03:12.961Z,12.77
2023-03-06T02:03:27.142Z,14.80
2023-03-06T02:03:41.290Z,15.88
2023-03-06T02:03:54.698Z,14.85
2023-03-06T02:04:07.093Z,14.07
2023-03-06T02:04:19.600Z,14.10
2023-03-06T02:04:32.499Z,13.95
2023-03-06T02:04:45.663Z,14.00
2023-03-06T02:04:58.218Z,14.55
2023-03-06T02:05:10.269Z,14.77
2023-03-06T02:05:22.823Z,14.32
2023-03-06T02:05:34.984Z,13.02
2023-03-06T02:05:47.310Z,12.75
2023-03-06T02:05:59.755Z,13.18
2023-03-06T02:06:11.892Z,13.18
2023-03-06T02:06:23.876Z,13.93
2023-03-06T02:06:38.401Z,13.40
2023-03-06T02:06:50.786Z,13.88
2023-03-06T02:07:06.104Z,14.25
2023-03-06T02:07:20.619Z,13.77
2023-03-06T02:07:34.225Z,14.15
2023-03-06T02:07:47.133Z,15.10
2023-03-06T02:07:59.173Z,14.15
2023-03-06T02:08:16.203Z,13.60
2023-03-06T02:08:29.582Z,17.55
2023-03-06T02:08:41.630Z,18.13
2023-03-06T02:08:54.246Z,15.02
2023-03-06T02:09:06.641Z,15.23
2023-03-06T02:09:18.908Z,13.75
2023-03-06T02:09:32.675Z,13.75
2023-03-06T02:09:44.671Z,13.77
2023-03-06T02:09:56.942Z,14.75
2023-03-06T02:10:10.070Z,15.70
2023-03-06T02:10:22.120Z,13.83
2023-03-06T02:10:34.120Z,13.68
2023-03-06T02:11:12.415Z,13.40
2023-03-06T02:11:28.328Z,14.90
2023-03-06T02:11:44.168Z,13.55
2023-03-06T02:11:56.509Z,14.23
2023-03-06T02:12:13.354Z,14.57
2023-03-06T02:12:26.699Z,14.48
2023-03-06T02:12:43.803Z,15.32
2023-03-06T02:12:56.302Z,16.98
2023-03-06T02:13:08.446Z,15.27
2023-03-06T02:13:20.419Z,13.80
2023-03-06T02:13:32.600Z,12.60
2023-03-06T02:13:45.944Z,13.88
2023-03-06T02:13:58.074Z,13.52
2023-03-06T02:14:16.348Z,12.75
2023-03-06T02:14:29.326Z,14.18
2023-03-06T02:14:42.358Z,14.23
2023-03-06T02:14:54.602Z,14.45
2023-03-06T02:15:07.054Z,13.88
2023-03-06T02:15:22.098Z,13.90
2023-03-06T02:15:34.180Z,14.40
2023-03-06T02:15:46.231Z,14.30
2023-03-06T02:15:59.250Z,14.30
2023-03-06T02:16:12.567Z,15.70
2023-03-06T02:16:28.846Z,15.77
2023-03-06T02:16:42.824Z,13.85
2023-03-06T02:16:54.984Z,12.45
2023-03-06T02:17:08.462Z,12.73
2023-03-06T02:17:22.350Z,14.13
2023-03-06T02:17:35.794Z,14.32
2023-03-06T02:17:50.698Z,13.02
2023-03-06T02:18:02.704Z,12.38
2023-03-06T02:18:14.813Z,14.20
2023-03-06T02:18:28.227Z,14.68
2023-03-06T02:18:42.646Z,14.30
2023-03-06T02:18:58.153Z,13.02
2023-03-06T02:19:24.704Z,12.95
2023-03-06T02:19:54.894Z,12.75
2023-03-06T02:20:27.974Z,13.70
2023-03-06T02:20:48.787Z,13.45
2023-03-06T02:21:04.343Z,14.43
2023-03-06T02:21:24.388Z,13.55
2023-03-06T02:21:37.662Z,14.40
2023-03-06T02:21:49.864Z,15.95
2023-03-06T02:22:03.218Z,13.30
2023-03-06T02:22:15.144Z,12.50
2023-03-06T02:22:37.357Z,12.48
2023-03-06T02:23:27.989Z,14.10
2023-03-06T02:23:50.382Z,15.60
2023-03-06T02:24:16.185Z,14.77
2023-03-06T02:24:42.455Z,14.50
2023-03-06T02:24:54.339Z,13.25
2023-03-06T02:25:32.533Z,13.10
2023-03-06T02:25:48.187Z,12.52
2023-03-06T02:26:01.546Z,14.10
2023-03-06T02:26:14.916Z,14.63
2023-03-06T02:26:28.137Z,13.98
2023-03-06T02:26:42.210Z,14.23
2023-03-06T02:26:55.550Z,15.65
2023-03-06T02:27:09.983Z,16.05
2023-03-06T02:27:24.429Z,14.27
2023-03-06T02:27:36.464Z,11.63
2023-03-06T02:27:49.090Z,11.50
2023-03-06T02:28:01.719Z,11.23
2023-03-06T02:28:18.039Z,11.73
2023-03-06T02:28:30.057Z,13.13
2023-03-06T02:28:42.233Z,14.02
2023-03-06T02:28:54.205Z,15.98
2023-03-06T02:29:07.585Z,16.13
2023-03-06T02:29:27.305Z,13.85
2023-03-06T02:29:39.216Z,13.13
2023-03-06T02:29:51.217Z,13.48
2023-03-06T02:30:08.537Z,13.57
2023-03-06T02:30:22.468Z,14.40
2023-03-06T02:30:35.485Z,14.25
2023-03-06T02:30:49.679Z,12.70
2023-03-06T02:31:01.681Z,12.48
2023-03-06T02:31:24.142Z,12.75
2023-03-06T02:31:36.184Z,16.20
2023-03-06T02:31:48.159Z,15.60
2023-03-06T02:32:00.121Z,14.63
2023-03-06T02:32:12.312Z,14.35
2023-03-06T02:32:24.328Z,13.45
2023-03-06T02:32:36.409Z,12.90
2023-03-06T02:32:48.422Z,15.88
2023-03-06T02:33:00.372Z,15.32
2023-03-06T02:33:18.610Z,14.20
2023-03-06T02:33:30.563Z,15.02
2023-03-06T02:33:42.495Z,16.63
2023-03-06T02:34:07.813Z,17.02
2023-03-06T02:34:19.656Z,13.63
2023-03-06T02:34:37.584Z,15.18
2023-03-06T02:34:53.434Z,14.18
2023-03-06T02:35:07.069Z,11.98
2023-03-06T02:35:22.237Z,12.10
2023-03-06T02:35:36.306Z,13.60
2023-03-06T02:36:03.111Z,14.40
2023-03-06T02:36:16.122Z,15.70
2023-03-06T02:36:29.483Z,15.20
2023-03-06T02:36:46.381Z,13.73
2023-03-06T02:37:02.929Z,12.73
2023-03-06T02:37:15.022Z,12.65
2023-03-06T02:37:28.591Z,13.07
2023-03-06T02:37:40.522Z,12.63
2023-03-06T02:37:53.605Z,11.95
2023-03-06T02:38:10.494Z,13.05
2023-03-06T02:38:27.930Z,14.23
2023-03-06T02:38:50.892Z,14.43
2023-03-06T02:39:05.565Z,14.00
2023-03-06T02:39:22.398Z,12.50
2023-03-06T02:39:38.973Z,12.27
2023-03-06T02:39:57.534Z,13.88
2023-03-06T02:40:15.300Z,12.90
2023-03-06T02:40:27.542Z,13.63
2023-03-06T02:40:43.674Z,13.57
2023-03-06T02:40:57.948Z,13.82
2023-03-06T02:41:09.915Z,15.10
2023-03-06T02:41:21.888Z,15.25
2023-03-06T02:41:33.942Z,15.32
2023-03-06T02:41:45.892Z,14.55
2023-03-06T02:41:59.981Z,13.15
2023-03-06T02:42:18.194Z,13.82
2023-03-06T02:42:30.401Z,14.23
2023-03-06T02:42:47.823Z,13.82
2023-03-06T02:43:00.361Z,14.02
2023-03-06T02:43:15.102Z,16.13
2023-03-06T02:43:29.495Z,15.95
2023-03-06T02:43:45.462Z,13.98
2023-03-06T02:43:57.413Z,14.77
2023-03-06T02:44:09.343Z,15.52
2023-03-06T02:44:23.143Z,15.88
2023-03-06T02:44:36.633Z,14.73
2023-03-06T02:44:49.571Z,14.27
2023-03-06T02:45:03.653Z,14.98
2023-03-06T02:45:22.823Z,15.95
2023-03-06T02:45:38.957Z,13.35
2023-03-06T02:45:51.724Z,12.32
2023-03-06T02:46:03.941Z,12.45
2023-03-06T02:46:18.331Z,11.82
2023-03-06T02:46:30.389Z,12.52
2023-03-06T02:46:42.352Z,13.73
2023-03-06T02:46:54.306Z,14.85
2023-03-06T02:47:07.753Z,16.20
2023-03-06T02:47:19.708Z,16.25
2023-03-06T02:47:32.933Z,14.30
2023-03-06T02:47:44.881Z,14.00
2023-03-06T02:47:56.876Z,16.67
2023-03-06T02:48:09.305Z,16.40
2023-03-06T02:48:21.615Z,15.18
2023-03-06T02:48:33.648Z,14.07
2023-03-06T02:48:45.599Z,15.10
2023-03-06T02:48:57.534Z,14.25
2023-03-06T02:49:09.478Z,14.02
2023-03-06T02:49:21.426Z,13.15
2023-03-06T02:49:33.333Z,13.68
2023-03-06T02:49:45.495Z,14.27
2023-03-06T02:49:57.449Z,14.88
2023-03-06T02:50:10.299Z,14.45
2023-03-06T02:50:22.253Z,14.35
2023-03-06T02:50:34.380Z,13.70
2023-03-06T02:50:47.070Z,12.98
2023-03-06T02:50:59.177Z,13.50
2023-03-06T02:51:11.132Z,13.82
2023-03-06T02:51:23.332Z,13.18
2023-03-06T02:51:35.301Z,14.30
2023-03-06T02:51:47.588Z,13.80
2023-03-06T02:51:59.532Z,13.33
2023-03-06T02:52:11.562Z,14.73
2023-03-06T02:52:23.790Z,15.02
2023-03-06T02:52:35.768Z,14.55